Rhinelander, Wisconsin
Current Conditions -  °F | °C
As of 9:53 PM on Sunday 23 Nov 2014 (Local Time) from KRHI Reporting Station
Moderate Fog Moderate Fog  
Wind Chill: 38°   Ceiling: 200
Heat Index: 38°   Visibility: 0.25mi
Dew Point: 38°   Wind: 3mph
Humidity: 100%   Direction: 90°E
Pressure: 29.24"   Gusts: NA
Location:  45.64°N, 89.41°W
Report Text: KRHI 240353Z AUTO 09003KT 1/4SM FG VV002 03/03 A2924 RMK AO2 SLP912 T00330033
Loading
Personal Weather Stations






























Interactive Weather Map New forecast layout! Learn more

10-Day Weather Forecast

Advertisements
Track Severe Weather on mobile